Time;durP1;ratioP1;P1;durP2;ratioP2;P2;SDS_P1;SDS_P2;PMS_P1;PMS_P2;Temp;Humidity;BMP_temperature;BMP_pressure;BME280_temperature;BME280_humidity;BME280_pressure;Samples;Min_cycle;Max_cycle;Signal;HPM_P1;HPM_P2
2022/12/29 00:01:21;;;;;;;1.67;1.58;;;18.50;71.10;;;;;;5070066;28;20493;-19
2022/12/29 00:03:46;;;;;;;1.73;1.63;;;18.50;70.90;;;;;;5073733;28;20079;-18
2022/12/29 00:06:12;;;;;;;1.58;1.45;;;18.50;70.90;;;;;;5071311;28;20048;-19
2022/12/29 00:08:40;;;;;;;1.80;1.70;;;18.50;70.90;;;;;;5075367;28;20051;-18
2022/12/29 00:11:10;;;;;;;1.98;1.88;;;18.50;70.80;;;;;;5073306;28;20076;-18
2022/12/29 00:16:20;;;;;;;1.98;1.70;;;18.60;70.40;;;;;;5074708;28;20067;-18
2022/12/29 00:18:46;;;;;;;1.50;1.40;;;18.50;70.40;;;;;;5065227;28;20045;-19
2022/12/29 00:35:07;;;;;;;1.80;1.70;;;18.40;70.60;;;;;;5070941;28;20459;-20
2022/12/29 00:45:46;;;;;;;1.42;1.33;;;18.40;70.90;;;;;;5073156;28;20145;-18
2022/12/29 00:48:11;;;;;;;1.23;1.13;;;18.30;71.00;;;;;;5072016;28;20497;-18
2022/12/29 00:50:37;;;;;;;1.48;1.38;;;18.30;71.10;;;;;;5070033;28;20048;-18
2022/12/29 00:53:02;;;;;;;1.60;1.50;;;18.30;70.80;;;;;;5072225;28;20099;-19
2022/12/29 00:55:29;;;;;;;2.65;1.60;;;18.30;70.80;;;;;;5071712;28;20048;-19
2022/12/29 00:57:55;;;;;;;1.98;1.52;;;18.30;70.90;;;;;;5056838;28;20117;-43
2022/12/29 01:00:20;;;;;;;1.50;1.40;;;18.40;70.70;;;;;;5071984;28;20043;-43
2022/12/29 01:02:46;;;;;;;2.35;1.50;;;18.30;70.70;;;;;;5071863;28;20535;-43
2022/12/29 01:05:12;;;;;;;1.73;1.38;;;18.40;70.70;;;;;;5070781;28;20040;-47
2022/12/29 01:07:37;;;;;;;1.50;1.40;;;18.30;70.60;;;;;;5069013;28;20064;-35
2022/12/29 01:10:14;;;;;;;1.85;1.38;;;18.40;70.70;;;;;;5063107;28;20071;-43
2022/12/29 01:12:40;;;;;;;1.50;1.40;;;18.30;70.50;;;;;;5074460;28;20141;-42
2022/12/29 01:15:06;;;;;;;3.42;1.20;;;18.30;70.90;;;;;;5074922;28;20509;-44
2022/12/29 01:17:32;;;;;;;1.33;1.23;;;18.20;70.90;;;;;;5070436;28;20393;-44
2022/12/29 01:19:58;;;;;;;1.40;1.30;;;18.20;71.00;;;;;;5071582;28;20072;-43
2022/12/29 01:22:23;;;;;;;1.40;1.30;;;18.30;70.90;;;;;;5073657;28;20043;-43
2022/12/29 01:24:49;;;;;;;1.73;1.63;;;18.20;71.00;;;;;;5075470;28;20073;-43
2022/12/29 01:27:14;;;;;;;1.17;1.08;;;18.20;70.90;;;;;;5075882;28;20051;-43
2022/12/29 01:29:40;;;;;;;1.35;1.25;;;18.20;71.00;;;;;;5073008;28;20044;-42
2022/12/29 01:32:05;;;;;;;1.42;1.23;;;18.30;71.00;;;;;;5071250;28;20048;-43
2022/12/29 01:34:31;;;;;;;1.45;1.23;;;18.20;71.10;;;;;;5071436;28;20529;-43
2022/12/29 01:36:57;;;;;;;1.48;1.20;;;18.30;71.00;;;;;;5073232;28;20043;-43
2022/12/29 01:39:22;;;;;;;1.52;1.20;;;18.10;71.40;;;;;;5070001;28;20051;-44
2022/12/29 01:41:48;;;;;;;1.40;1.30;;;18.10;71.70;;;;;;5068488;28;20785;-42
2022/12/29 01:44:58;;;;;;;1.85;1.08;;;18.10;71.80;;;;;;5072168;28;20060;-44
2022/12/29 01:47:37;;;;;;;1.48;1.27;;;18.20;71.40;;;;;;5050608;28;20040;-43
2022/12/29 01:50:12;;;;;;;1.48;1.10;;;18.10;71.60;;;;;;5062332;28;20501;-43
2022/12/29 01:52:41;;;;;;;2.83;1.17;;;18.10;71.70;;;;;;5077448;28;20039;-43
2022/12/29 01:55:06;;;;;;;0.95;0.90;;;18.10;71.70;;;;;;5046068;28;20051;-43
2022/12/29 01:57:34;;;;;;;1.08;0.98;;;18.10;71.80;;;;;;5072544;28;20040;-43
2022/12/29 02:00:09;;;;;;;1.27;1.15;;;18.00;72.00;;;;;;5070553;28;20572;-43
2022/12/29 02:02:35;;;;;;;1.08;0.88;;;18.00;72.10;;;;;;5072515;28;20044;-44
2022/12/29 02:05:06;;;;;;;1.20;1.10;;;18.00;71.90;;;;;;5067684;28;20044;-44
2022/12/29 02:07:32;;;;;;;1.50;1.33;;;18.10;71.90;;;;;;5054027;28;20131;-43
2022/12/29 02:09:58;;;;;;;1.10;1.00;;;18.00;72.00;;;;;;5051192;28;20048;-43
2022/12/29 02:12:23;;;;;;;1.48;1.13;;;18.00;71.80;;;;;;5070957;28;20032;-43
2022/12/29 02:14:51;;;;;;;1.33;1.23;;;18.10;71.90;;;;;;5051820;28;20048;-43
2022/12/29 02:17:36;;;;;;;1.02;0.80;;;18.10;71.60;;;;;;5068745;28;20523;-43
2022/12/29 02:20:29;;;;;;;1.42;1.00;;;18.00;71.90;;;;;;5053513;28;20545;-42
2022/12/29 02:23:20;;;;;;;1.42;0.95;;;18.00;72.00;;;;;;5069557;28;20512;-43
2022/12/29 02:25:54;;;;;;;0.98;0.90;;;18.00;71.90;;;;;;5030744;28;20067;-42
2022/12/29 02:28:38;;;;;;;1.08;0.98;;;18.00;71.90;;;;;;5067749;28;20032;-43
2022/12/29 02:31:22;;;;;;;1.00;0.90;;;18.00;71.80;;;;;;5069519;28;20056;-43
2022/12/29 02:34:00;;;;;;;1.45;1.35;;;18.00;71.70;;;;;;5071954;28;20040;-42
2022/12/29 02:36:35;;;;;;;1.08;0.98;;;18.00;71.70;;;;;;5066060;28;20127;-43
2022/12/29 02:39:15;;;;;;;0.80;0.80;;;18.10;71.50;;;;;;5069593;28;20044;-43
2022/12/29 02:41:52;;;;;;;1.13;1.00;;;18.00;71.50;;;;;;5053915;28;20049;-43
2022/12/29 02:44:41;;;;;;;1.33;1.23;;;18.00;71.60;;;;;;5066208;28;20049;-43
2022/12/29 02:47:39;;;;;;;1.30;1.20;;;18.00;71.60;;;;;;5071928;28;20040;-43
2022/12/29 02:50:17;;;;;;;1.65;0.77;;;18.00;71.70;;;;;;5047203;28;20055;-43
2022/12/29 02:52:51;;;;;;;1.13;0.82;;;17.90;71.90;;;;;;5056456;28;20131;-32
2022/12/29 02:55:16;;;;;;;;;;;17.90;71.60;;;;;;5069475;28;20051;-43
2022/12/29 02:57:42;;;;;;;1.10;0.88;;;17.90;71.80;;;;;;5069023;28;20317;-42
2022/12/29 03:00:15;;;;;;;0.60;0.60;;;18.00;71.80;;;;;;5049498;28;20608;-43
2022/12/29 03:03:05;;;;;;;0.95;0.90;;;17.90;71.60;;;;;;5069720;28;20121;-43
2022/12/29 03:05:55;;;;;;;0.73;0.73;;;17.90;71.60;;;;;;5068571;28;20040;-43
2022/12/29 03:08:46;;;;;;;1.33;1.20;;;18.00;71.60;;;;;;5069411;28;20509;-43
2022/12/29 03:17:12;;;;;;;0.80;0.77;;;17.90;71.70;;;;;;5074035;28;20092;-43
2022/12/29 03:19:40;;;;;;;0.77;0.75;;;17.90;71.80;;;;;;5053591;28;20044;-43
2022/12/29 03:22:30;;;;;;;1.10;1.00;;;17.90;71.70;;;;;;5074504;28;20049;-44
2022/12/29 03:25:17;;;;;;;0.80;0.80;;;17.90;71.80;;;;;;5072367;28;20036;-43
2022/12/29 03:27:45;;;;;;;1.35;0.80;;;17.90;71.80;;;;;;5069809;28;20505;-42
2022/12/29 03:30:11;;;;;;;1.13;0.85;;;17.90;71.70;;;;;;5071384;28;20040;-45
2022/12/29 03:32:40;;;;;;;1.00;0.90;;;17.90;71.70;;;;;;5059683;28;20458;-43
2022/12/29 03:35:06;;;;;;;0.93;0.85;;;17.80;71.70;;;;;;5057329;28;20559;-43
2022/12/29 03:37:36;;;;;;;1.10;0.90;;;17.90;71.80;;;;;;5056506;28;20550;-43
2022/12/29 03:40:03;;;;;;;1.00;0.90;;;17.90;71.70;;;;;;5054209;28;20036;-44
2022/12/29 03:42:29;;;;;;;0.98;0.88;;;17.80;71.70;;;;;;5075462;28;20472;-43
2022/12/29 03:44:58;;;;;;;0.60;0.60;;;17.80;71.70;;;;;;5066096;28;20129;-42
2022/12/29 03:47:24;;;;;;;0.80;0.80;;;17.80;71.60;;;;;;5067243;28;20689;-43
2022/12/29 03:49:50;;;;;;;1.40;1.00;;;17.80;71.70;;;;;;5076882;28;20044;-42
2022/12/29 03:52:15;;;;;;;1.08;0.73;;;17.80;71.60;;;;;;5073348;28;20051;-43
2022/12/29 03:54:41;;;;;;;0.88;0.70;;;17.90;72.30;;;;;;5079267;28;20041;-43
2022/12/29 03:57:06;;;;;;;1.17;0.90;;;17.80;71.60;;;;;;5077411;28;20401;-48
2022/12/29 03:59:32;;;;;;;0.70;0.60;;;17.80;71.70;;;;;;5058438;28;20067;-43
2022/12/29 04:01:57;;;;;;;0.80;0.80;;;17.90;71.40;;;;;;5074126;28;20044;-43
2022/12/29 04:04:23;;;;;;;0.63;0.63;;;17.80;71.50;;;;;;5069944;28;20409;-43
2022/12/29 04:06:48;;;;;;;0.90;0.70;;;17.80;71.60;;;;;;5073686;28;20106;-42
2022/12/29 04:09:14;;;;;;;2.15;0.68;;;17.80;71.60;;;;;;5072962;28;20044;-43
2022/12/29 04:11:40;;;;;;;0.80;0.77;;;17.80;71.50;;;;;;5077337;28;21387;-43
2022/12/29 04:14:05;;;;;;;0.95;0.70;;;17.80;71.50;;;;;;5072248;28;20449;-43
2022/12/29 04:16:31;;;;;;;1.05;0.60;;;17.90;71.50;;;;;;5077634;28;20134;-44
2022/12/29 04:18:56;;;;;;;0.93;0.80;;;17.90;71.50;;;;;;5058068;28;20052;-43
2022/12/29 04:21:22;;;;;;;0.50;0.50;;;17.90;71.40;;;;;;5073310;28;20044;-42
2022/12/29 04:23:47;;;;;;;0.60;0.50;;;17.80;71.30;;;;;;5071216;28;20048;-38
2022/12/29 04:26:13;;;;;;;0.70;0.57;;;17.90;71.40;;;;;;5079499;28;20056;-43
2022/12/29 04:28:38;;;;;;;0.80;0.60;;;17.90;71.50;;;;;;5075858;28;20069;-42
2022/12/29 04:31:04;;;;;;;0.70;0.60;;;17.80;71.50;;;;;;5075739;28;20040;-43
2022/12/29 04:33:30;;;;;;;1.73;0.70;;;17.80;71.60;;;;;;5078057;28;20044;-42
2022/12/29 04:35:55;;;;;;;1.02;0.93;;;17.80;71.40;;;;;;5075537;28;20048;-42
2022/12/29 04:38:22;;;;;;;0.98;0.80;;;17.80;71.60;;;;;;5076231;28;20047;-43
2022/12/29 04:40:48;;;;;;;1.00;0.77;;;17.80;71.70;;;;;;5074897;28;20048;-43
2022/12/29 04:43:13;;;;;;;0.88;0.85;;;17.80;71.50;;;;;;5072587;28;20585;-43
2022/12/29 04:45:43;;;;;;;1.48;0.85;;;17.90;71.50;;;;;;5073280;28;20092;-43
2022/12/29 04:48:08;;;;;;;1.08;0.93;;;17.80;71.70;;;;;;5072975;28;20059;-43
2022/12/29 04:50:34;;;;;;;0.75;0.70;;;17.80;71.90;;;;;;5072148;28;20048;-42
2022/12/29 04:52:59;;;;;;;0.85;0.70;;;17.80;71.60;;;;;;5071742;28;20528;-43
2022/12/29 04:55:25;;;;;;;0.80;0.68;;;17.90;71.40;;;;;;5075482;28;20048;-43
2022/12/29 04:57:50;;;;;;;0.50;0.50;;;17.80;71.50;;;;;;5078337;28;20068;-42
2022/12/29 05:00:16;;;;;;;0.95;0.43;;;17.90;71.50;;;;;;5075714;28;20052;-43
2022/12/29 05:02:42;;;;;;;0.88;0.52;;;17.90;71.50;;;;;;5072868;28;20052;-43
2022/12/29 05:05:07;;;;;;;0.88;0.68;;;17.90;71.50;;;;;;5073100;28;20460;-44
2022/12/29 05:07:33;;;;;;;0.68;0.68;;;17.80;71.40;;;;;;5075096;28;20054;-42
2022/12/29 05:09:59;;;;;;;0.60;0.60;;;17.90;71.50;;;;;;5072801;28;20044;-43
2022/12/29 05:12:24;;;;;;;1.75;0.65;;;17.80;71.50;;;;;;5073732;28;20066;-43
2022/12/29 05:14:50;;;;;;;0.90;0.60;;;17.80;71.50;;;;;;5071901;28;20098;-35
2022/12/29 05:17:16;;;;;;;1.20;0.65;;;17.80;71.60;;;;;;5072996;28;20044;-43
2022/12/29 05:19:41;;;;;;;0.93;0.60;;;17.80;71.80;;;;;;5071801;28;20413;-44
2022/12/29 05:22:07;;;;;;;0.80;0.68;;;17.80;71.60;;;;;;5071914;28;20489;-44
2022/12/29 05:24:32;;;;;;;1.05;0.70;;;17.80;71.60;;;;;;5075064;28;20097;-43
2022/12/29 05:26:58;;;;;;;0.75;0.60;;;17.80;71.60;;;;;;5076380;28;20046;-44
2022/12/29 05:29:23;;;;;;;0.73;0.52;;;17.80;72.20;;;;;;5076368;28;20036;-45
2022/12/29 05:31:49;;;;;;;0.88;0.60;;;17.80;71.40;;;;;;5074447;28;20455;-44
2022/12/29 05:34:15;;;;;;;0.57;0.55;;;17.80;71.40;;;;;;5070814;28;20128;-44
2022/12/29 05:36:40;;;;;;;1.00;0.50;;;17.80;71.50;;;;;;5073654;28;20045;-43
2022/12/29 05:39:07;;;;;;;1.20;0.70;;;17.80;72.30;;;;;;5072643;28;20040;-43
2022/12/29 05:41:33;;;;;;;1.05;0.73;;;17.80;71.60;;;;;;5071596;28;20067;-43
2022/12/29 05:43:59;;;;;;;1.75;0.80;;;17.80;71.50;;;;;;5075148;28;20528;-42
2022/12/29 05:46:24;;;;;;;0.82;0.63;;;17.80;72.20;;;;;;5067923;28;20040;-44
2022/12/29 05:48:50;;;;;;;0.68;0.47;;;17.80;71.30;;;;;;5078700;28;20124;-43
2022/12/29 05:51:15;;;;;;;0.85;0.70;;;17.80;71.30;;;;;;5075443;28;20053;-43
2022/12/29 05:53:41;;;;;;;0.40;0.40;;;17.80;71.30;;;;;;5071366;28;20048;-43
2022/12/29 05:56:07;;;;;;;0.63;0.40;;;17.80;71.30;;;;;;5070624;28;20414;-44
2022/12/29 05:58:32;;;;;;;1.00;0.57;;;17.80;71.30;;;;;;5072930;28;20048;-43
2022/12/29 06:00:58;;;;;;;0.60;0.60;;;17.80;72.20;;;;;;5070041;28;20420;-41
2022/12/29 06:03:24;;;;;;;1.08;0.90;;;17.80;71.10;;;;;;5072497;28;20143;-46
2022/12/29 06:05:49;;;;;;;0.90;0.80;;;17.80;71.30;;;;;;5074593;28;20489;-48
2022/12/29 06:08:15;;;;;;;0.65;0.50;;;17.80;71.20;;;;;;5072987;28;20137;-44
2022/12/29 06:10:40;;;;;;;0.60;0.60;;;17.70;71.30;;;;;;5073557;28;20051;-43
2022/12/29 06:13:06;;;;;;;0.80;0.60;;;17.80;71.30;;;;;;5075164;28;20505;-44
2022/12/29 06:15:32;;;;;;;0.73;0.60;;;17.80;71.10;;;;;;5078438;28;20044;-44
2022/12/29 06:17:58;;;;;;;1.02;0.80;;;17.80;71.20;;;;;;5065098;28;20043;-44
2022/12/29 06:20:23;;;;;;;0.93;0.65;;;17.80;71.20;;;;;;5071839;28;20048;-43
2022/12/29 06:22:49;;;;;;;0.90;0.60;;;17.70;71.30;;;;;;5075273;28;20397;-43
2022/12/29 06:25:15;;;;;;;0.77;0.68;;;17.70;71.30;;;;;;5069843;28;20139;-44
2022/12/29 06:27:40;;;;;;;0.95;0.50;;;17.80;71.90;;;;;;5072914;28;20051;-43
2022/12/29 06:30:06;;;;;;;0.30;0.30;;;17.70;71.30;;;;;;5068483;28;20409;-43
2022/12/29 06:32:32;;;;;;;0.65;0.50;;;17.70;71.30;;;;;;5069456;28;20578;-43
2022/12/29 06:34:57;;;;;;;0.90;0.75;;;17.80;71.10;;;;;;5072095;28;20071;-43
2022/12/29 06:37:23;;;;;;;0.90;0.50;;;17.90;70.80;;;;;;5073185;28;20044;-43
2022/12/29 06:39:48;;;;;;;0.68;0.43;;;17.80;71.00;;;;;;5070547;28;20106;-43
2022/12/29 06:42:14;;;;;;;0.40;0.40;;;17.80;70.90;;;;;;5064292;28;20405;-43
2022/12/29 06:44:40;;;;;;;1.00;0.57;;;17.70;71.00;;;;;;5072094;28;20040;-43
2022/12/29 06:47:05;;;;;;;0.60;0.50;;;17.70;71.00;;;;;;5082029;28;20417;-43
2022/12/29 06:49:31;;;;;;;0.93;0.50;;;17.70;71.00;;;;;;5078872;28;20064;-43
2022/12/29 06:51:58;;;;;;;1.88;0.70;;;17.80;70.60;;;;;;5070580;28;20064;-41
2022/12/29 06:54:23;;;;;;;2.55;0.52;;;17.90;70.60;;;;;;5078484;28;20043;-44
2022/12/29 06:56:49;;;;;;;1.17;0.50;;;17.90;70.50;;;;;;5074331;28;20044;-43
2022/12/29 06:59:14;;;;;;;1.35;0.75;;;17.90;70.60;;;;;;5080205;28;20043;-43
2022/12/29 07:01:40;;;;;;;1.42;0.60;;;17.90;70.50;;;;;;5078317;28;20044;-44
2022/12/29 07:04:05;;;;;;;1.10;0.50;;;17.90;70.50;;;;;;5082315;28;20508;-43
2022/12/29 07:06:31;;;;;;;1.00;0.68;;;17.80;70.70;;;;;;5079519;28;20052;-43
2022/12/29 07:08:57;;;;;;;2.60;0.80;;;17.90;70.70;;;;;;5071971;28;20079;-36
2022/12/29 07:11:23;;;;;;;2.20;0.77;;;17.90;71.30;;;;;;5074462;28;20409;-44
2022/12/29 07:13:48;;;;;;;4.07;0.60;;;17.80;70.60;;;;;;5073535;28;20135;-43
2022/12/29 07:16:14;;;;;;;0.80;0.60;;;17.80;70.80;;;;;;5070659;28;20052;-44
2022/12/29 07:18:39;;;;;;;0.88;0.50;;;17.80;70.70;;;;;;5078009;28;20028;-44
2022/12/29 07:21:05;;;;;;;0.85;0.60;;;17.90;70.70;;;;;;5074245;28;20036;-45
2022/12/29 07:23:31;;;;;;;1.65;0.52;;;17.90;70.40;;;;;;5054736;28;20505;-45
2022/12/29 07:26:04;;;;;;;2.17;0.80;;;17.80;70.50;;;;;;5071448;28;20121;-45
2022/12/29 07:28:30;;;;;;;1.42;0.57;;;17.90;70.60;;;;;;5077225;28;20041;-43
2022/12/29 07:30:55;;;;;;;2.13;0.50;;;17.80;71.40;;;;;;5073808;28;20048;-43
2022/12/29 07:33:21;;;;;;;1.35;0.60;;;17.80;71.50;;;;;;5076145;28;20051;-44
2022/12/29 07:35:47;;;;;;;1.13;0.98;;;17.80;70.50;;;;;;5074520;28;20496;-43
2022/12/29 07:38:12;;;;;;;1.40;0.70;;;17.80;70.50;;;;;;5077065;28;20036;-44
2022/12/29 07:40:38;;;;;;;0.60;0.40;;;17.90;70.40;;;;;;5078281;28;20051;-42
2022/12/29 07:43:03;;;;;;;0.57;0.50;;;17.80;70.10;;;;;;5063173;28;20041;-38
2022/12/29 07:45:29;;;;;;;1.20;0.70;;;17.80;70.20;;;;;;5047378;28;20052;-43
2022/12/29 07:47:55;;;;;;;0.82;0.70;;;17.90;70.20;;;;;;5061141;28;20510;-45
2022/12/29 07:50:20;;;;;;;1.25;0.50;;;17.90;70.00;;;;;;5052427;28;20517;-44
2022/12/29 07:52:47;;;;;;;1.02;0.70;;;18.00;69.90;;;;;;5055834;28;20049;-47
2022/12/29 07:55:16;;;;;;;1.13;0.60;;;17.90;69.90;;;;;;5054769;28;20036;-43
2022/12/29 07:57:42;;;;;;;2.38;0.60;;;18.00;69.70;;;;;;5050438;28;20029;-45
2022/12/29 08:00:09;;;;;;;2.72;0.60;;;17.90;69.80;;;;;;5061795;28;20482;-45
2022/12/29 08:02:35;;;;;;;0.45;0.40;;;17.90;70.30;;;;;;5058700;28;20043;-44
2022/12/29 08:05:00;;;;;;;2.08;0.65;;;17.80;70.60;;;;;;5059265;28;20033;-32
2022/12/29 08:07:26;;;;;;;1.23;0.60;;;17.90;70.70;;;;;;5061625;28;20300;-43
2022/12/29 08:09:51;;;;;;;1.23;0.50;;;17.90;70.90;;;;;;5063115;28;20037;-44
2022/12/29 08:12:17;;;;;;;0.80;0.70;;;17.80;70.90;;;;;;5064461;28;20076;-43
2022/12/29 08:14:43;;;;;;;1.33;0.90;;;17.80;70.90;;;;;;5048392;28;20033;-44
2022/12/29 08:17:08;;;;;;;2.70;0.90;;;17.80;70.90;;;;;;5050049;28;20040;-44
2022/12/29 08:19:34;;;;;;;1.55;0.75;;;17.80;72.40;;;;;;5062886;28;20036;-43
2022/12/29 08:21:59;;;;;;;3.67;1.20;;;17.90;72.50;;;;;;5058369;28;20127;-44
2022/12/29 08:24:25;;;;;;;2.28;0.80;;;17.90;72.80;;;;;;5059622;28;20025;-43
2022/12/29 08:26:51;;;;;;;3.13;0.98;;;17.90;73.40;;;;;;5063878;28;20147;-43
2022/12/29 08:29:16;;;;;;;3.17;0.90;;;17.90;73.50;;;;;;5056354;28;20025;-43
2022/12/29 08:31:42;;;;;;;2.90;0.82;;;18.00;72.80;;;;;;5052524;28;20088;-44
2022/12/29 08:34:08;;;;;;;4.47;1.08;;;17.90;73.50;;;;;;5052003;28;20044;-43
2022/12/29 08:36:33;;;;;;;2.10;0.93;;;17.80;74.30;;;;;;5057215;28;20096;-43
2022/12/29 08:38:59;;;;;;;3.42;1.05;;;17.80;73.60;;;;;;5057961;28;20497;-43
2022/12/29 08:41:25;;;;;;;1.85;0.70;;;17.80;74.20;;;;;;5056461;28;20044;-43
2022/12/29 08:43:50;;;;;;;3.70;0.90;;;17.80;73.90;;;;;;5065705;28;20060;-43
2022/12/29 08:46:16;;;;;;;2.45;1.25;;;17.80;74.40;;;;;;5066827;28;20412;-42
2022/12/29 08:48:42;;;;;;;3.33;0.90;;;17.80;73.80;;;;;;5075595;28;20055;-48
2022/12/29 08:51:07;;;;;;;1.35;0.93;;;17.80;74.40;;;;;;5073755;28;20051;-43
2022/12/29 08:53:33;;;;;;;3.42;1.00;;;17.80;74.00;;;;;;5075686;28;20040;-45
2022/12/29 08:55:59;;;;;;;1.20;0.63;;;17.80;73.90;;;;;;5073783;28;20119;-43
2022/12/29 08:58:26;;;;;;;2.65;0.50;;;17.80;73.70;;;;;;5073363;28;20040;-42
2022/12/29 09:00:57;;;;;;;3.50;0.60;;;17.90;73.80;;;;;;5074915;28;20044;-45
2022/12/29 09:03:23;;;;;;;2.95;0.63;;;17.80;73.70;;;;;;5070121;28;20508;-46
2022/12/29 09:05:52;;;;;;;2.25;0.80;;;17.80;73.70;;;;;;5067892;28;20056;-43
2022/12/29 09:08:18;;;;;;;5.38;0.60;;;17.80;73.50;;;;;;5039420;28;20274;-44
2022/12/29 09:10:44;;;;;;;3.22;1.00;;;17.90;73.30;;;;;;5063944;28;20052;-44
2022/12/29 09:13:10;;;;;;;3.50;1.13;;;17.90;73.30;;;;;;5066291;28;20056;-44
2022/12/29 09:15:36;;;;;;;0.70;0.47;;;18.00;73.30;;;;;;4725012;28;10001128;-44
2022/12/29 09:18:01;;;;;;;3.08;0.70;;;18.00;73.00;;;;;;5065533;28;20293;-40
2022/12/29 09:20:27;;;;;;;2.75;0.95;;;18.00;73.40;;;;;;5074899;28;20048;-42
2022/12/29 09:22:53;;;;;;;3.05;1.05;;;18.00;73.40;;;;;;5072373;28;20570;-45
2022/12/29 09:25:19;;;;;;;6.90;1.13;;;18.00;73.30;;;;;;5065823;28;20055;-43
2022/12/29 09:27:45;;;;;;;3.00;0.50;;;17.90;73.50;;;;;;5072719;28;20036;-43
2022/12/29 09:30:12;;;;;;;1.40;0.88;;;17.90;73.60;;;;;;5074792;28;20093;-40
2022/12/29 09:32:37;;;;;;;5.40;0.80;;;17.90;73.30;;;;;;5073742;28;20051;-42
2022/12/29 09:35:03;;;;;;;2.05;0.80;;;17.90;72.60;;;;;;5067590;28;20044;-47
2022/12/29 09:37:29;;;;;;;5.90;1.10;;;17.90;72.60;;;;;;5074175;28;20044;-42
2022/12/29 09:39:55;;;;;;;2.70;0.73;;;17.90;72.50;;;;;;5073374;28;20071;-43
2022/12/29 09:42:46;;;;;;;1.80;0.77;;;18.00;72.50;;;;;;5072139;28;20040;-43
2022/12/29 09:45:15;;;;;;;3.70;0.88;;;18.00;71.90;;;;;;5057275;28;20032;-39
2022/12/29 09:47:42;;;;;;;2.72;0.80;;;18.00;71.70;;;;;;5064877;28;20040;-42
2022/12/29 09:50:35;;;;;;;3.22;1.25;;;18.00;71.90;;;;;;5065495;28;20053;-40
2022/12/29 09:53:05;;;;;;;4.00;1.30;;;18.10;71.30;;;;;;5051863;28;20119;-42
2022/12/29 09:55:54;;;;;;;1.73;0.90;;;18.10;71.20;;;;;;5048635;28;20050;-43
2022/12/29 09:58:34;;;;;;;2.75;0.60;;;18.00;71.30;;;;;;5043857;28;20038;-42
2022/12/29 10:01:06;;;;;;;2.63;0.90;;;18.00;71.20;;;;;;5072275;28;20102;-43
2022/12/29 10:03:49;;;;;;;2.53;0.93;;;18.00;71.00;;;;;;5047937;28;20132;-42
2022/12/29 10:06:37;;;;;;;1.67;1.08;;;18.10;70.90;;;;;;5073309;28;20036;-42
2022/12/29 10:09:17;;;;;;;1.77;0.90;;;18.10;71.00;;;;;;5045522;28;20029;-42
2022/12/29 10:11:58;;;;;;;2.72;1.05;;;18.10;70.90;;;;;;5066099;28;20051;-43
2022/12/29 10:14:48;;;;;;;1.17;0.70;;;18.10;70.80;;;;;;5071248;28;20032;-42
2022/12/29 10:17:40;;;;;;;2.53;0.63;;;18.10;70.90;;;;;;5078441;28;20540;-40
2022/12/29 10:20:26;;;;;;;1.33;0.70;;;18.10;70.70;;;;;;5076115;28;20039;-43
2022/12/29 10:23:20;;;;;;;2.22;1.00;;;18.20;70.70;;;;;;5076252;28;20039;-43
2022/12/29 10:25:45;;;;;;;1.87;1.27;;;18.00;70.90;;;;;;5048916;28;20060;-43
2022/12/29 10:28:38;;;;;;;1.48;0.90;;;18.10;70.70;;;;;;5052281;28;20310;-42
2022/12/29 10:31:06;;;;;;;1.42;0.80;;;18.10;70.50;;;;;;5054592;28;20067;-43
2022/12/29 10:33:40;;;;;;;2.17;0.90;;;18.10;70.60;;;;;;5056553;28;20131;-43
2022/12/29 10:36:37;;;;;;;1.23;0.77;;;18.10;70.50;;;;;;5054272;28;20041;-42
2022/12/29 10:39:10;;;;;;;2.47;0.73;;;18.10;71.40;;;;;;5068399;28;20036;-42
2022/12/29 10:41:50;;;;;;;1.90;0.80;;;18.00;70.80;;;;;;5051715;28;20475;-43
2022/12/29 10:44:16;;;;;;;1.88;0.70;;;18.10;70.50;;;;;;5064833;28;20045;-42
2022/12/29 10:46:42;;;;;;;2.38;0.85;;;18.10;70.40;;;;;;5065847;28;20059;-43
2022/12/29 10:49:14;;;;;;;1.30;0.98;;;18.20;71.10;;;;;;5076847;28;20041;-42
2022/12/29 10:51:41;;;;;;;3.47;1.02;;;18.10;70.30;;;;;;5068063;28;20054;-43
2022/12/29 10:54:10;;;;;;;0.90;0.60;;;18.20;70.30;;;;;;5070126;28;20047;-42
2022/12/29 10:56:40;;;;;;;1.58;0.65;;;18.20;70.20;;;;;;5064848;28;20058;-42
2022/12/29 10:59:33;;;;;;;1.13;0.70;;;18.20;70.10;;;;;;5060475;28;20032;-43
2022/12/29 11:02:01;;;;;;;1.63;0.77;;;18.20;70.40;;;;;;5060639;28;20044;-42
2022/12/29 11:04:48;;;;;;;1.42;0.75;;;18.10;70.30;;;;;;5070068;28;20052;-42
2022/12/29 11:07:16;;;;;;;1.30;1.15;;;18.20;70.30;;;;;;5072562;28;20567;-41
2022/12/29 11:09:42;;;;;;;2.35;0.60;;;18.10;70.40;;;;;;5074326;28;20036;-48
2022/12/29 11:12:25;;;;;;;1.60;0.80;;;18.10;70.40;;;;;;5065498;28;20040;-42
2022/12/29 11:15:07;;;;;;;2.33;0.75;;;18.00;70.60;;;;;;5068175;28;20050;-42
2022/12/29 11:17:46;;;;;;;1.73;0.63;;;18.10;70.70;;;;;;5054538;28;20548;-42
2022/12/29 11:20:34;;;;;;;1.33;0.80;;;18.00;70.90;;;;;;5069181;28;20048;-42
2022/12/29 11:23:00;;;;;;;1.15;0.73;;;18.20;70.60;;;;;;5058484;28;20117;-37
2022/12/29 11:25:26;;;;;;;1.48;0.77;;;18.20;70.10;;;;;;5060101;28;20478;-44
2022/12/29 11:27:56;;;;;;;1.27;0.68;;;18.20;70.20;;;;;;5061154;28;20576;-43
2022/12/29 11:30:26;;;;;;;2.78;0.70;;;18.10;70.60;;;;;;5069858;28;20153;-42
2022/12/29 11:32:53;;;;;;;0.95;0.90;;;18.30;70.30;;;;;;5065347;28;20048;-43
2022/12/29 11:35:33;;;;;;;1.52;0.52;;;18.40;70.10;;;;;;5058386;28;20048;-40
2022/12/29 11:37:58;;;;;;;0.68;0.50;;;18.50;69.40;;;;;;5076272;28;20033;-43
2022/12/29 11:40:24;;;;;;;1.10;0.60;;;18.60;68.60;;;;;;5076732;28;20102;-42
2022/12/29 11:42:57;;;;;;;0.73;0.70;;;18.70;68.40;;;;;;5061209;28;20052;-42
2022/12/29 11:45:23;;;;;;;0.80;0.70;;;18.70;68.20;;;;;;5026307;28;20103;-42
2022/12/29 11:47:56;;;;;;;0.95;0.60;;;18.90;67.90;;;;;;5043438;28;20053;-42
2022/12/29 11:50:46;;;;;;;2.53;1.17;;;18.90;67.60;;;;;;5023164;28;20048;-41
2022/12/29 11:53:32;;;;;;;0.95;0.68;;;18.80;68.10;;;;;;5031945;28;20517;-42
2022/12/29 11:55:58;;;;;;;0.75;0.32;;;18.80;68.10;;;;;;4350375;28;10000737;-42
2022/12/29 11:58:35;;;;;;;0.80;0.68;;;18.90;68.10;;;;;;5038455;28;20913;-41
2022/12/29 12:01:17;;;;;;;1.02;0.52;;;18.80;68.10;;;;;;5038363;28;20517;-42
2022/12/29 12:03:56;;;;;;;1.20;0.90;;;18.80;68.10;;;;;;5024135;28;20160;-41
2022/12/29 12:06:24;;;;;;;1.80;0.60;;;18.80;68.20;;;;;;5018774;28;20045;-41
2022/12/29 12:08:58;;;;;;;1.05;0.50;;;18.80;68.20;;;;;;5029537;28;20056;-42
2022/12/29 12:11:33;;;;;;;0.80;0.70;;;18.80;68.20;;;;;;5041560;28;20119;-42
2022/12/29 12:14:23;;;;;;;1.35;0.80;;;18.80;68.20;;;;;;5027372;28;20484;-42
2022/12/29 12:17:10;;;;;;;0.95;0.73;;;18.90;68.30;;;;;;4993109;28;20049;-43
2022/12/29 12:19:43;;;;;;;0.88;0.50;;;18.80;68.10;;;;;;5034629;28;20057;-42
2022/12/29 12:22:13;;;;;;;1.08;0.60;;;18.80;68.20;;;;;;5054127;28;20049;-42
2022/12/29 12:24:49;;;;;;;0.57;0.40;;;18.80;68.20;;;;;;5018126;28;20049;-45
2022/12/29 12:27:34;;;;;;;0.63;0.50;;;18.90;68.10;;;;;;5024288;28;20105;-43
2022/12/29 12:30:05;;;;;;;0.57;0.40;;;18.90;68.10;;;;;;5038080;28;20533;-42
2022/12/29 12:33:03;;;;;;;1.52;0.68;;;18.90;68.10;;;;;;5039131;28;20044;-43
2022/12/29 12:35:40;;;;;;;0.88;0.60;;;18.90;68.00;;;;;;5035235;28;20041;-43
2022/12/29 12:38:27;;;;;;;1.40;0.60;;;18.90;68.00;;;;;;5039901;28;20093;-42
2022/12/29 12:41:07;;;;;;;2.63;0.65;;;18.90;68.10;;;;;;5039234;28;20050;-41
2022/12/29 12:44:10;;;;;;;1.17;0.77;;;18.90;68.00;;;;;;5050991;28;20053;-43
2022/12/29 12:47:05;;;;;;;1.20;0.57;;;18.90;68.00;;;;;;5057811;28;20044;-43
2022/12/29 12:50:03;;;;;;;2.20;0.50;;;18.80;68.00;;;;;;5067536;28;20122;-42
2022/12/29 12:52:52;;;;;;;0.85;0.60;;;18.90;67.90;;;;;;5049362;28;20044;-43
2022/12/29 12:55:31;;;;;;;1.02;0.70;;;18.90;67.80;;;;;;5066753;28;20345;-42
2022/12/29 12:58:41;;;;;;;0.70;0.57;;;18.90;67.70;;;;;;5069531;28;20040;-42
2022/12/29 13:01:28;;;;;;;0.50;0.50;;;18.90;67.70;;;;;;5049370;28;20493;-42
2022/12/29 13:04:06;;;;;;;0.75;0.40;;;18.90;67.60;;;;;;5048955;28;20507;-42
2022/12/29 13:07:00;;;;;;;0.52;0.50;;;18.60;68.20;;;;;;5061184;28;20063;-43
2022/12/29 13:09:34;;;;;;;1.17;0.50;;;18.60;68.20;;;;;;5044772;28;20420;-41
2022/12/29 13:12:21;;;;;;;0.47;0.45;;;18.40;68.80;;;;;;5068205;28;20059;-42
2022/12/29 13:15:12;;;;;;;1.02;0.50;;;18.40;69.20;;;;;;5072909;28;20576;-42
2022/12/29 13:17:41;;;;;;;0.70;0.52;;;18.60;68.60;;;;;;5070381;28;20086;-41
2022/12/29 13:20:09;;;;;;;0.80;0.63;;;18.40;68.70;;;;;;5057987;28;20115;-44
2022/12/29 13:22:53;;;;;;;0.98;0.40;;;18.30;69.20;;;;;;5069762;28;20060;-41
2022/12/29 13:25:23;;;;;;;0.55;0.43;;;18.30;69.50;;;;;;5069560;28;20044;-41
2022/12/29 13:27:51;;;;;;;0.80;0.50;;;18.30;69.50;;;;;;5052379;28;20382;-41
2022/12/29 13:30:23;;;;;;;0.75;0.60;;;18.10;69.70;;;;;;5066245;28;20106;-42
2022/12/29 13:33:13;;;;;;;1.15;0.50;;;18.20;69.80;;;;;;5050777;28;20167;-44
2022/12/29 13:36:02;;;;;;;1.00;0.68;;;18.20;70.00;;;;;;5075569;28;20121;-42
2022/12/29 13:38:46;;;;;;;0.45;0.40;;;18.10;70.00;;;;;;5052139;28;20486;-41